createdAt,value
2022-08-26T00:02:00.998Z,21.30
2022-08-26T00:04:29.303Z,21.30
2022-08-26T00:06:58.181Z,21.30
2022-08-26T00:09:26.548Z,21.30
2022-08-26T00:11:54.916Z,21.30
2022-08-26T00:14:27.043Z,21.20
2022-08-26T00:16:59.355Z,21.20
2022-08-26T00:19:27.863Z,21.10
2022-08-26T00:21:56.277Z,21.10
2022-08-26T00:24:24.893Z,21.10
2022-08-26T00:26:53.770Z,21.10
2022-08-26T00:29:22.326Z,21.10
2022-08-26T00:31:50.848Z,21.10
2022-08-26T00:34:20.589Z,21.10
2022-08-26T00:36:49.348Z,21.10
2022-08-26T00:39:20.362Z,21.10
2022-08-26T00:41:49.057Z,21.10
2022-08-26T00:44:17.352Z,21.10
2022-08-26T00:46:48.085Z,21.10
2022-08-26T00:49:19.253Z,21.10
2022-08-26T00:51:52.283Z,21.10
2022-08-26T00:54:21.440Z,21.10
2022-08-26T00:56:53.824Z,21.00
2022-08-26T00:59:22.590Z,21.00
2022-08-26T01:01:51.532Z,21.00
2022-08-26T01:04:22.305Z,21.00
2022-08-26T01:06:53.270Z,20.90
2022-08-26T01:09:21.922Z,20.90
2022-08-26T01:11:51.725Z,20.90
2022-08-26T01:14:20.234Z,20.90
2022-08-26T01:16:48.810Z,20.90
2022-08-26T01:19:20.625Z,20.90
2022-08-26T01:21:53.374Z,20.80
2022-08-26T01:24:23.588Z,20.80
2022-08-26T01:26:58.066Z,20.80
2022-08-26T01:29:26.631Z,20.80
2022-08-26T01:31:56.903Z,20.80
2022-08-26T01:34:27.476Z,20.80
2022-08-26T01:37:00.057Z,20.70
2022-08-26T01:39:30.260Z,20.70
2022-08-26T01:41:58.514Z,20.70
2022-08-26T01:44:36.228Z,20.70
2022-08-26T01:47:06.440Z,20.70
2022-08-26T01:49:34.962Z,20.60
2022-08-26T01:52:04.542Z,20.60
2022-08-26T01:54:34.250Z,20.60
2022-08-26T01:57:02.659Z,20.60
2022-08-26T01:59:31.014Z,20.60
2022-08-26T02:01:59.257Z,20.60
2022-08-26T02:04:29.634Z,20.60
2022-08-26T02:06:57.958Z,20.60
2022-08-26T02:09:27.439Z,20.60
2022-08-26T02:11:57.122Z,20.60
2022-08-26T02:14:27.246Z,20.60
2022-08-26T02:16:55.974Z,20.60
2022-08-26T02:19:28.329Z,20.60
2022-08-26T02:21:56.601Z,20.60
2022-08-26T02:24:27.345Z,20.60
2022-08-26T02:26:57.613Z,20.60
2022-08-26T02:29:27.922Z,20.50
2022-08-26T02:31:56.428Z,20.50
2022-08-26T02:34:31.150Z,20.50
2022-08-26T02:37:00.637Z,20.60
2022-08-26T02:39:29.608Z,20.60
2022-08-26T02:41:59.349Z,20.60
2022-08-26T02:44:27.941Z,20.60
2022-08-26T02:46:56.355Z,20.60
2022-08-26T02:49:25.120Z,20.60
2022-08-26T02:51:53.644Z,20.60
2022-08-26T02:54:22.310Z,20.60
2022-08-26T02:56:50.960Z,20.60
2022-08-26T02:59:20.624Z,20.60
2022-08-26T03:01:53.069Z,20.60
2022-08-26T03:04:25.896Z,20.60
2022-08-26T03:06:55.533Z,20.50
2022-08-26T03:09:23.964Z,20.50
2022-08-26T03:11:52.273Z,20.50
2022-08-26T03:14:23.770Z,20.50
2022-08-26T03:16:52.349Z,20.50
2022-08-26T03:19:20.588Z,20.50
2022-08-26T03:21:48.768Z,20.50
2022-08-26T03:24:17.509Z,20.50
2022-08-26T03:26:52.730Z,20.50
2022-08-26T03:29:40.022Z,20.40
2022-08-26T03:32:08.432Z,20.40
2022-08-26T03:34:37.228Z,20.40
2022-08-26T03:37:07.076Z,20.40
2022-08-26T03:39:35.369Z,20.40
2022-08-26T03:42:03.552Z,20.40
2022-08-26T03:44:33.219Z,20.40
2022-08-26T03:47:01.438Z,20.30
2022-08-26T03:49:31.096Z,20.30
2022-08-26T03:51:59.406Z,20.30
2022-08-26T03:54:27.706Z,20.30
2022-08-26T03:56:55.931Z,20.30
2022-08-26T03:59:25.268Z,20.30
2022-08-26T04:01:55.050Z,20.30
2022-08-26T04:04:24.569Z,20.20
2022-08-26T04:06:58.249Z,20.20
2022-08-26T04:09:27.450Z,20.20
2022-08-26T04:11:57.395Z,20.20
2022-08-26T04:14:26.899Z,20.20
2022-08-26T04:16:56.795Z,20.20
2022-08-26T04:19:26.108Z,20.20
2022-08-26T04:21:54.626Z,20.20
2022-08-26T04:24:24.449Z,20.20
2022-08-26T04:26:52.784Z,20.30
2022-08-26T04:29:24.022Z,20.20
2022-08-26T04:31:55.596Z,20.20
2022-08-26T04:34:28.376Z,20.20
2022-08-26T04:36:57.458Z,20.30
2022-08-26T04:39:25.737Z,20.30
2022-08-26T04:41:58.133Z,20.30
2022-08-26T04:44:27.696Z,20.30
2022-08-26T04:46:55.893Z,20.30
2022-08-26T04:49:26.120Z,20.30
2022-08-26T04:51:56.071Z,20.30
2022-08-26T04:54:25.079Z,20.40
2022-08-26T04:56:53.458Z,20.40
2022-08-26T04:59:21.702Z,20.40
2022-08-26T05:01:52.002Z,20.50
2022-08-26T05:04:20.682Z,20.50
2022-08-26T05:06:50.541Z,20.50
2022-08-26T05:09:20.270Z,20.60
2022-08-26T05:11:52.002Z,20.60
2022-08-26T05:14:20.600Z,20.70
2022-08-26T05:16:49.362Z,20.70
2022-08-26T05:19:18.942Z,20.80
2022-08-26T05:21:49.502Z,20.80
2022-08-26T05:24:18.017Z,20.90
2022-08-26T05:26:47.231Z,20.80
2022-08-26T05:29:16.816Z,20.90
2022-08-26T05:31:45.217Z,20.90
2022-08-26T05:34:13.621Z,20.90
2022-08-26T05:36:42.357Z,21.00
2022-08-26T05:39:12.091Z,21.00
2022-08-26T05:41:42.092Z,21.00
2022-08-26T05:44:12.694Z,21.10
2022-08-26T05:46:43.999Z,21.20
2022-08-26T05:49:13.350Z,21.20
2022-08-26T05:51:42.184Z,21.30
2022-08-26T05:54:12.129Z,21.30
2022-08-26T05:56:40.502Z,21.40
2022-08-26T05:59:14.466Z,21.40
2022-08-26T06:01:43.527Z,21.50
2022-08-26T06:04:11.983Z,21.50
2022-08-26T06:06:41.616Z,21.50
2022-08-26T06:09:12.296Z,21.60
2022-08-26T06:11:40.660Z,21.70
2022-08-26T06:14:09.241Z,21.80
2022-08-26T06:16:40.942Z,21.80
2022-08-26T06:19:11.490Z,21.90
2022-08-26T06:21:41.238Z,22.00
2022-08-26T06:24:30.689Z,22.10
2022-08-26T06:27:01.645Z,22.20
2022-08-26T06:29:31.296Z,22.40
2022-08-26T06:31:59.595Z,22.50
2022-08-26T06:34:30.252Z,22.50
2022-08-26T06:36:59.700Z,22.60
2022-08-26T06:39:31.475Z,22.70
2022-08-26T06:41:59.953Z,22.80
2022-08-26T06:44:28.360Z,22.90
2022-08-26T06:46:56.693Z,23.00
2022-08-26T06:49:26.702Z,23.10
2022-08-26T06:51:56.504Z,23.20
2022-08-26T06:54:24.871Z,23.30
2022-08-26T06:56:56.835Z,23.30
2022-08-26T06:59:25.301Z,23.40
2022-08-26T07:01:54.821Z,23.40
2022-08-26T07:04:24.671Z,23.40
2022-08-26T07:06:53.900Z,23.40
2022-08-26T07:09:22.822Z,23.50
2022-08-26T07:11:51.476Z,23.60
2022-08-26T07:14:21.881Z,23.70
2022-08-26T07:16:50.457Z,23.80
2022-08-26T07:19:31.151Z,23.90
2022-08-26T07:22:01.811Z,24.00
2022-08-26T07:24:31.120Z,24.10
2022-08-26T07:27:01.849Z,24.20
2022-08-26T07:29:32.475Z,24.30
2022-08-26T07:32:00.786Z,24.40
2022-08-26T07:34:29.021Z,24.60
2022-08-26T07:36:58.738Z,24.60
2022-08-26T07:39:27.910Z,24.70
2022-08-26T07:41:56.354Z,24.80
2022-08-26T07:44:27.186Z,24.90
2022-08-26T07:46:56.854Z,25.00
2022-08-26T07:49:26.719Z,25.10
2022-08-26T07:51:56.426Z,25.20
2022-08-26T07:54:27.083Z,25.30
2022-08-26T07:56:56.030Z,25.40
2022-08-26T07:59:24.403Z,25.50
2022-08-26T08:01:52.670Z,25.50
2022-08-26T08:04:26.400Z,25.70
2022-08-26T08:06:55.829Z,25.70
2022-08-26T08:09:24.264Z,25.90
2022-08-26T08:11:52.996Z,26.00
2022-08-26T08:14:22.285Z,26.10
2022-08-26T08:16:51.258Z,26.20
2022-08-26T08:19:25.064Z,26.30
2022-08-26T08:22:05.286Z,26.50
2022-08-26T08:24:46.426Z,26.50
2022-08-26T08:27:23.499Z,26.60
2022-08-26T08:29:54.957Z,26.70
2022-08-26T08:32:23.511Z,26.80
2022-08-26T08:34:53.122Z,26.90
2022-08-26T08:37:21.638Z,26.90
2022-08-26T08:39:50.173Z,26.90
2022-08-26T08:42:40.049Z,27.00
2022-08-26T08:45:11.657Z,27.00
2022-08-26T08:47:42.126Z,27.10
2022-08-26T08:50:20.918Z,27.20
2022-08-26T08:52:52.868Z,27.30
2022-08-26T08:55:21.215Z,27.50
2022-08-26T08:58:04.991Z,27.60
2022-08-26T09:00:39.843Z,27.70
2022-08-26T09:03:12.228Z,27.80
2022-08-26T09:05:48.682Z,27.90
2022-08-26T09:08:20.034Z,28.00
2022-08-26T09:10:51.816Z,28.10
2022-08-26T09:13:26.257Z,28.20
2022-08-26T09:16:03.865Z,28.20
2022-08-26T09:19:05.654Z,28.30
2022-08-26T09:21:35.279Z,28.40
2022-08-26T09:24:03.599Z,28.50
2022-08-26T09:26:43.740Z,28.60
2022-08-26T09:29:22.500Z,28.70
2022-08-26T09:31:50.848Z,28.80
2022-08-26T09:34:22.373Z,28.90
2022-08-26T09:36:53.564Z,28.90
2022-08-26T09:39:37.737Z,28.90
2022-08-26T09:42:10.399Z,29.00
2022-08-26T09:44:54.882Z,29.00
2022-08-26T09:47:27.909Z,28.90
2022-08-26T09:50:09.380Z,28.90
2022-08-26T09:52:40.617Z,28.90
2022-08-26T09:55:14.230Z,28.90
2022-08-26T09:57:49.513Z,28.90
2022-08-26T10:00:29.630Z,29.00
2022-08-26T10:02:58.916Z,29.00
2022-08-26T10:05:33.629Z,29.00
2022-08-26T10:08:18.057Z,29.10
2022-08-26T10:10:46.899Z,29.20
2022-08-26T10:13:25.237Z,29.20
2022-08-26T10:16:02.925Z,29.30
2022-08-26T10:18:35.109Z,29.50
2022-08-26T10:21:07.490Z,29.50
2022-08-26T10:26:17.697Z,29.70
2022-08-26T10:28:50.150Z,29.90
2022-08-26T10:31:27.478Z,30.00
2022-08-26T10:34:00.049Z,30.00
2022-08-26T10:37:10.795Z,30.10
2022-08-26T10:39:42.788Z,30.20
2022-08-26T10:42:18.108Z,30.20
2022-08-26T10:44:46.577Z,30.20
2022-08-26T10:47:19.562Z,30.30
2022-08-26T10:49:48.011Z,30.30
2022-08-26T10:52:20.031Z,30.20
2022-08-26T10:54:54.477Z,30.00
2022-08-26T10:57:26.309Z,29.80
2022-08-26T11:00:00.583Z,29.60
2022-08-26T11:02:33.937Z,29.50
2022-08-26T11:05:04.365Z,29.40
2022-08-26T11:07:43.732Z,29.30
2022-08-26T11:10:59.249Z,29.10
2022-08-26T11:14:04.403Z,28.90
2022-08-26T11:16:42.905Z,28.70
2022-08-26T11:19:13.364Z,28.60
2022-08-26T11:22:06.089Z,28.50
2022-08-26T11:25:11.667Z,28.50
2022-08-26T11:28:05.568Z,28.40
2022-08-26T11:30:41.292Z,28.40
2022-08-26T11:33:09.680Z,28.40
2022-08-26T11:35:52.171Z,28.30
2022-08-26T11:38:26.660Z,28.20
2022-08-26T11:41:09.816Z,28.10
2022-08-26T11:43:48.124Z,27.80
2022-08-26T11:46:24.099Z,27.50
2022-08-26T11:49:12.987Z,27.10
2022-08-26T11:51:43.332Z,26.50
2022-08-26T11:55:03.509Z,25.90
2022-08-26T11:57:32.102Z,25.40
2022-08-26T12:00:02.104Z,24.90
2022-08-26T12:02:30.413Z,24.50
2022-08-26T12:04:58.984Z,24.20
2022-08-26T12:07:28.891Z,24.00
2022-08-26T12:13:40.977Z,23.70
2022-08-26T12:16:12.508Z,23.30
2022-08-26T12:18:40.992Z,23.10
2022-08-26T19:23:33.596Z,20.40
2022-08-26T19:26:04.521Z,20.30
2022-08-26T19:28:32.973Z,20.20
2022-08-26T19:31:02.695Z,20.40
2022-08-26T19:33:31.026Z,20.40
2022-08-26T19:35:59.260Z,20.30
2022-08-26T19:38:27.827Z,20.50
2022-08-26T19:40:56.127Z,20.40
2022-08-26T19:43:24.395Z,20.50
2022-08-26T19:45:53.520Z,20.30
2022-08-26T19:48:23.171Z,20.30
2022-08-26T19:50:51.404Z,20.30
2022-08-26T19:53:19.742Z,20.50
2022-08-26T19:55:48.371Z,20.30
2022-08-26T19:58:16.589Z,20.40
2022-08-26T20:00:44.823Z,20.50
2022-08-26T20:03:14.828Z,20.60
2022-08-26T20:05:45.837Z,20.50
2022-08-26T20:08:22.211Z,20.30
2022-08-26T20:10:51.120Z,20.70
2022-08-26T20:13:19.554Z,20.40
2022-08-26T20:15:47.892Z,20.60
2022-08-26T20:18:29.978Z,20.50
2022-08-26T20:21:19.283Z,20.60
2022-08-26T20:23:47.950Z,20.40
2022-08-26T20:26:16.399Z,20.70
2022-08-26T20:28:44.648Z,20.60
2022-08-26T20:31:12.920Z,20.50
2022-08-26T20:33:46.571Z,20.40
2022-08-26T20:36:17.684Z,20.40
2022-08-26T20:38:46.289Z,20.50
2022-08-26T20:41:14.644Z,20.60
2022-08-26T20:43:43.597Z,20.60
2022-08-26T20:46:17.219Z,20.20
2022-08-26T20:48:47.205Z,20.20
2022-08-26T20:51:16.883Z,20.40
2022-08-26T20:53:45.327Z,20.30
2022-08-26T20:56:14.985Z,20.40
2022-08-26T20:58:43.507Z,20.30
2022-08-26T21:01:19.040Z,20.40
2022-08-26T21:03:48.002Z,20.40
2022-08-26T21:06:17.618Z,20.20
2022-08-26T21:08:47.281Z,20.20
2022-08-26T21:11:15.902Z,20.30
2022-08-26T21:14:03.921Z,20.10
2022-08-26T21:16:34.400Z,20.00
2022-08-26T21:19:02.627Z,20.30
2022-08-26T21:21:32.399Z,20.00
2022-08-26T21:24:00.645Z,19.90
2022-08-26T21:26:28.894Z,20.00
2022-08-26T21:28:57.191Z,20.10
2022-08-26T21:31:26.005Z,20.10
2022-08-26T21:33:54.216Z,20.20
2022-08-26T21:36:22.495Z,19.90
2022-08-26T21:38:52.139Z,20.00
2022-08-26T21:41:22.111Z,20.10
2022-08-26T21:43:51.387Z,20.20
2022-08-26T21:46:22.303Z,19.80
2022-08-26T21:48:59.201Z,20.00
2022-08-26T21:51:29.175Z,20.00
2022-08-26T21:53:59.288Z,19.60
2022-08-26T21:56:30.267Z,19.70
2022-08-26T21:58:58.595Z,19.90
2022-08-26T22:01:31.905Z,19.60
2022-08-26T22:04:00.387Z,19.80
2022-08-26T22:06:29.706Z,19.80
2022-08-26T22:08:59.411Z,19.70
2022-08-26T22:11:28.453Z,20.00
2022-08-26T22:13:56.976Z,20.00
2022-08-26T22:16:26.882Z,20.10
2022-08-26T22:18:55.308Z,20.00
2022-08-26T22:21:25.249Z,19.90
2022-08-26T22:23:57.902Z,20.00
2022-08-26T22:26:31.183Z,20.00
2022-08-26T22:29:00.077Z,19.90
2022-08-26T22:31:37.218Z,19.80
2022-08-26T22:34:08.454Z,19.70
2022-08-26T22:36:39.831Z,19.90
2022-08-26T22:39:12.654Z,20.00
2022-08-26T22:41:43.052Z,19.90
2022-08-26T22:44:11.667Z,19.70
2022-08-26T22:46:40.387Z,19.90
2022-08-26T22:49:09.762Z,19.90
2022-08-26T22:51:38.043Z,19.70
2022-08-26T22:54:06.539Z,19.90
2022-08-26T22:56:34.808Z,19.90
2022-08-26T22:59:04.601Z,19.80
2022-08-26T23:01:35.655Z,19.90
2022-08-26T23:04:05.067Z,19.70
2022-08-26T23:06:33.369Z,19.90
2022-08-26T23:09:01.623Z,19.80
2022-08-26T23:11:29.874Z,19.90
2022-08-26T23:13:58.119Z,19.80
2022-08-26T23:16:31.371Z,19.70
2022-08-26T23:19:06.417Z,19.70
2022-08-26T23:21:35.006Z,19.50
2022-08-26T23:24:03.532Z,19.50
2022-08-26T23:26:32.246Z,19.50
2022-08-26T23:29:00.472Z,19.40
2022-08-26T23:31:30.200Z,19.50
2022-08-26T23:34:16.190Z,19.60
2022-08-26T23:36:46.271Z,19.70
2022-08-26T23:39:15.294Z,19.80
2022-08-26T23:41:43.551Z,19.30
2022-08-26T23:44:12.333Z,19.50
2022-08-26T23:46:41.999Z,19.60
2022-08-26T23:49:10.287Z,19.80
